馬祖南竿航空站 - ATIS

METAR RCFG 200600Z 04016KT 8000 FEW014 BKN045 12/08 Q1023 NOSIG RMK 03019G29KT/R21 MAX WND 24KT/R03 36018G29KT/NJL A3021(B)=

站台狀態:Online
最後更新:2022-01-20 22:00:02